Time;durP1;ratioP1;P1;durP2;ratioP2;P2;SDS_P1;SDS_P2;PMS_P1;PMS_P2;Temp;Humidity;BMP_temperature;BMP_pressure;BME280_temperature;BME280_humidity;BME280_pressure;Samples;Min_cycle;Max_cycle;Signal;HPM_P1;HPM_P2
2024/01/07 00:02:23;;;;;;;;;;;16.90;48.00;;;;;;7399033;19;2173;-75
2024/01/07 00:04:48;;;;;;;;;;;17.00;47.90;;;;;;7399875;19;1069;-75
2024/01/07 00:07:13;;;;;;;;;;;17.10;47.60;;;;;;7399451;19;1290;-74
2024/01/07 00:09:39;;;;;;;;;;;17.20;47.40;;;;;;7399441;19;2008;-74
2024/01/07 00:12:04;;;;;;;;;;;17.20;47.30;;;;;;7398146;19;2340;-74
2024/01/07 00:14:30;;;;;;;;;;;17.30;47.20;;;;;;7403635;19;1765;-75
2024/01/07 00:16:55;;;;;;;;;;;17.30;47.00;;;;;;7400547;19;1954;-75
2024/01/07 00:19:21;;;;;;;;;;;17.20;47.00;;;;;;7402235;19;1439;-75
2024/01/07 00:21:46;;;;;;;;;;;17.20;47.10;;;;;;7399206;19;825;-75
2024/01/07 00:24:12;;;;;;;;;;;17.20;47.30;;;;;;7403153;19;2121;-74
2024/01/07 00:26:37;;;;;;;;;;;17.10;47.30;;;;;;7401596;19;2058;-74
2024/01/07 00:29:03;;;;;;;;;;;17.00;47.40;;;;;;7401900;19;2019;-74
2024/01/07 00:31:29;;;;;;;;;;;17.00;47.50;;;;;;7399941;19;1954;-75
2024/01/07 00:33:54;;;;;;;;;;;16.90;47.60;;;;;;7398692;19;1742;-74
2024/01/07 00:36:20;;;;;;;;;;;16.80;47.70;;;;;;7402018;19;1954;-74
2024/01/07 00:38:45;;;;;;;;;;;16.80;47.80;;;;;;7398939;19;2124;-75
2024/01/07 00:41:11;;;;;;;;;;;16.80;47.80;;;;;;7401738;19;1813;-75
2024/01/07 00:43:36;;;;;;;;;;;16.80;47.80;;;;;;7398844;19;827;-74
2024/01/07 00:46:02;;;;;;;;;;;16.70;47.70;;;;;;7397586;19;1915;-75
2024/01/07 00:48:27;;;;;;;;;;;16.70;47.70;;;;;;7400502;19;1940;-74
2024/01/07 00:50:52;;;;;;;;;;;16.80;47.80;;;;;;7401020;19;2262;-75
2024/01/07 00:53:18;;;;;;;;;;;16.80;47.60;;;;;;7402254;19;2143;-75
2024/01/07 00:55:43;;;;;;;;;;;16.80;47.60;;;;;;7401427;19;2112;-74
2024/01/07 00:58:09;;;;;;;;;;;16.80;47.60;;;;;;7402227;19;1895;-75
2024/01/07 01:00:34;;;;;;;;;;;16.90;48.20;;;;;;7399442;19;1939;-74
2024/01/07 01:03:00;;;;;;;;;;;17.00;47.30;;;;;;7401430;19;2156;-74
2024/01/07 01:05:26;;;;;;;;;;;17.10;47.00;;;;;;7402827;19;1814;-75
2024/01/07 01:07:52;;;;;;;;;;;17.20;46.80;;;;;;7400196;19;1612;-74
2024/01/07 01:10:17;;;;;;;;;;;17.20;46.60;;;;;;7399356;19;1847;-74
2024/01/07 01:12:43;;;;;;;;;;;17.30;47.20;;;;;;7396351;19;2179;-74
2024/01/07 01:15:09;;;;;;;;;;;17.30;46.50;;;;;;7400376;19;1815;-74
2024/01/07 01:17:34;;;;;;;;;;;17.30;46.40;;;;;;7396680;19;2186;-74
2024/01/07 01:19:59;;;;;;;;;;;17.20;46.60;;;;;;7401731;19;1965;-75
2024/01/07 01:22:25;;;;;;;;;;;17.10;46.70;;;;;;7402822;19;2037;-74
2024/01/07 01:24:52;;;;;;;;;;;17.10;46.80;;;;;;7399255;19;1928;-74
2024/01/07 01:27:18;;;;;;;;;;;17.00;47.00;;;;;;7399666;19;1897;-74
2024/01/07 01:29:43;;;;;;;;;;;17.00;47.00;;;;;;7400293;19;2064;-74
2024/01/07 01:32:09;;;;;;;;;;;16.90;47.10;;;;;;7399387;19;1951;-74
2024/01/07 01:34:34;;;;;;;;;;;16.90;47.10;;;;;;7397281;19;2019;-74
2024/01/07 01:37:00;;;;;;;;;;;16.90;47.10;;;;;;7399814;19;2222;-74
2024/01/07 01:39:25;;;;;;;;;;;16.90;47.10;;;;;;7401807;19;1863;-74
2024/01/07 01:41:51;;;;;;;;;;;16.90;47.10;;;;;;7396608;19;966;-75
2024/01/07 01:44:16;;;;;;;;;;;16.80;47.20;;;;;;7399819;19;2178;-74
2024/01/07 01:46:42;;;;;;;;;;;16.80;47.10;;;;;;7400977;19;2446;-74
2024/01/07 01:49:07;;;;;;;;;;;16.80;47.00;;;;;;7396966;19;1932;-74
2024/01/07 01:51:33;;;;;;;;;;;16.80;47.00;;;;;;7399423;19;2121;-74
2024/01/07 01:54:00;;;;;;;;;;;16.80;47.10;;;;;;7398501;19;2193;-74
2024/01/07 01:56:26;;;;;;;;;;;16.80;46.90;;;;;;7400196;19;2171;-74
2024/01/07 01:58:51;;;;;;;;;;;16.90;46.80;;;;;;7398646;19;763;-74
2024/01/07 02:01:16;;;;;;;;;;;17.00;46.50;;;;;;7397668;19;2258;-74
2024/01/07 02:03:42;;;;;;;;;;;17.10;46.30;;;;;;7396599;19;1851;-74
2024/01/07 02:06:08;;;;;;;;;;;17.20;46.10;;;;;;7398440;19;1592;-74
2024/01/07 02:08:34;;;;;;;;;;;17.20;45.90;;;;;;7396896;19;2011;-74
2024/01/07 02:11:13;;;;;;;;;;;17.30;45.80;;;;;;7395192;19;2527;-74
2024/01/07 02:13:38;;;;;;;;;;;17.20;45.80;;;;;;7397336;19;1845;-74
2024/01/07 02:16:04;;;;;;;;;;;17.20;45.90;;;;;;7398015;19;2327;-74
2024/01/07 02:18:29;;;;;;;;;;;17.10;46.00;;;;;;7398961;19;1761;-75
2024/01/07 02:20:55;;;;;;;;;;;17.10;46.20;;;;;;7401095;19;1364;-74
2024/01/07 02:23:20;;;;;;;;;;;17.00;46.30;;;;;;7396328;19;2312;-74
2024/01/07 02:25:46;;;;;;;;;;;17.00;46.50;;;;;;7398287;19;1738;-75
2024/01/07 02:28:11;;;;;;;;;;;16.90;46.40;;;;;;7397862;19;2246;-74
2024/01/07 02:30:37;;;;;;;;;;;16.90;46.70;;;;;;7397359;19;2046;-74
2024/01/07 02:33:03;;;;;;;;;;;16.80;46.60;;;;;;7396212;19;2189;-74
2024/01/07 02:35:28;;;;;;;;;;;16.80;46.50;;;;;;7399009;19;2105;-74
2024/01/07 02:37:54;;;;;;;;;;;16.80;46.40;;;;;;7396378;19;2147;-74
2024/01/07 02:40:19;;;;;;;;;;;16.80;46.40;;;;;;7396256;19;2480;-74
2024/01/07 02:42:45;;;;;;;;;;;16.80;46.60;;;;;;7395724;19;1904;-74
2024/01/07 02:45:10;;;;;;;;;;;16.80;46.50;;;;;;7395514;19;2380;-74
2024/01/07 02:47:39;;;;;;;;;;;16.80;46.60;;;;;;7395371;19;1867;-74
2024/01/07 02:50:04;;;;;;;;;;;16.80;46.60;;;;;;7397948;19;2065;-74
2024/01/07 02:52:30;;;;;;;;;;;16.80;46.50;;;;;;7393601;19;2130;-74
2024/01/07 02:54:55;;;;;;;;;;;16.90;46.50;;;;;;7396962;19;1854;-74
2024/01/07 02:57:21;;;;;;;;;;;17.00;46.30;;;;;;7397378;19;2390;-75
2024/01/07 02:59:46;;;;;;;;;;;17.00;46.00;;;;;;7398488;19;1720;-74
2024/01/07 03:02:12;;;;;;;;;;;17.10;45.90;;;;;;7396967;19;1847;-74
2024/01/07 03:04:37;;;;;;;;;;;17.20;45.70;;;;;;7395671;19;2322;-74
2024/01/07 03:07:02;;;;;;;;;;;17.20;45.60;;;;;;7396234;19;2102;-74
2024/01/07 03:09:28;;;;;;;;;;;17.30;45.60;;;;;;7393444;19;2265;-74
2024/01/07 03:11:54;;;;;;;;;;;17.20;45.50;;;;;;7394680;19;1922;-74
2024/01/07 03:14:21;;;;;;;;;;;17.20;45.70;;;;;;7396034;19;2116;-74
2024/01/07 03:16:46;;;;;;;;;;;17.20;45.90;;;;;;7395463;19;1860;-74
2024/01/07 03:19:12;;;;;;;;;;;17.10;45.90;;;;;;7394887;19;2190;-75
2024/01/07 03:21:37;;;;;;;;;;;17.00;46.10;;;;;;7394881;19;1911;-74
2024/01/07 03:24:03;;;;;;;;;;;17.00;46.40;;;;;;7394125;19;2126;-74
2024/01/07 03:26:34;;;;;;;;;;;16.90;46.50;;;;;;7394959;19;2001;-75
2024/01/07 03:29:00;;;;;;;;;;;16.90;46.70;;;;;;7395854;19;1859;-75
2024/01/07 03:31:26;;;;;;;;;;;16.80;46.80;;;;;;7394068;19;1844;-75
2024/01/07 03:33:51;;;;;;;;;;;16.80;46.80;;;;;;7392520;19;2024;-74
2024/01/07 03:36:17;;;;;;;;;;;16.80;46.80;;;;;;7396036;19;1940;-74
2024/01/07 03:38:42;;;;;;;;;;;16.80;46.80;;;;;;7403144;19;2071;-74
2024/01/07 03:41:08;;;;;;;;;;;16.80;46.90;;;;;;7402104;19;1591;-74
2024/01/07 03:43:33;;;;;;;;;;;16.80;46.90;;;;;;7403982;19;1844;-74
2024/01/07 03:45:59;;;;;;;;;;;16.80;47.00;;;;;;7403675;19;2133;-74
2024/01/07 03:48:24;;;;;;;;;;;16.80;47.00;;;;;;7402303;19;2925;-74
2024/01/07 03:50:49;;;;;;;;;;;16.90;46.90;;;;;;7401870;19;1901;-75
2024/01/07 03:53:15;;;;;;;;;;;17.00;46.80;;;;;;7401008;19;2089;-74
2024/01/07 03:55:40;;;;;;;;;;;17.10;46.70;;;;;;7401614;19;2356;-75
2024/01/07 03:58:06;;;;;;;;;;;17.10;46.50;;;;;;7399754;19;2026;-74
2024/01/07 04:00:32;;;;;;;;;;;17.20;46.40;;;;;;7401105;19;1862;-74
2024/01/07 04:02:57;;;;;;;;;;;17.20;46.30;;;;;;7400787;19;2094;-74
2024/01/07 04:05:23;;;;;;;;;;;17.30;46.30;;;;;;7404303;19;1060;-74
2024/01/07 04:07:48;;;;;;;;;;;17.20;46.30;;;;;;7401165;19;2105;-74
2024/01/07 04:10:15;;;;;;;;;;;17.20;46.30;;;;;;7398773;19;1924;-74
2024/01/07 04:12:41;;;;;;;;;;;17.20;46.40;;;;;;7400324;19;2094;-75
2024/01/07 04:15:06;;;;;;;;;;;17.10;46.50;;;;;;7402666;19;1895;-75
2024/01/07 04:17:32;;;;;;;;;;;17.00;46.60;;;;;;7401416;19;1730;-74
2024/01/07 04:19:57;;;;;;;;;;;16.90;46.80;;;;;;7404106;19;1741;-74
2024/01/07 04:22:23;;;;;;;;;;;16.90;47.00;;;;;;7400408;19;1994;-75
2024/01/07 04:24:48;;;;;;;;;;;16.90;47.10;;;;;;7402564;19;1609;-75
2024/01/07 04:27:14;;;;;;;;;;;16.80;47.00;;;;;;7400234;19;1837;-74
2024/01/07 04:29:39;;;;;;;;;;;16.80;47.20;;;;;;7401437;19;2200;-74
2024/01/07 04:32:05;;;;;;;;;;;16.80;47.10;;;;;;7400026;19;3019;-75
2024/01/07 04:34:30;;;;;;;;;;;16.80;47.30;;;;;;7398813;19;2100;-74
2024/01/07 04:36:55;;;;;;;;;;;16.80;47.20;;;;;;7399753;19;2191;-74
2024/01/07 04:39:21;;;;;;;;;;;16.80;47.30;;;;;;7399899;19;2219;-74
2024/01/07 04:41:46;;;;;;;;;;;16.80;47.40;;;;;;7399834;19;2102;-74
2024/01/07 04:44:12;;;;;;;;;;;16.70;47.40;;;;;;7400235;19;2124;-74
2024/01/07 04:46:37;;;;;;;;;;;16.80;47.30;;;;;;7399919;19;2103;-74
2024/01/07 04:49:03;;;;;;;;;;;16.90;47.20;;;;;;7397550;19;1800;-74
2024/01/07 04:51:28;;;;;;;;;;;17.00;47.00;;;;;;7400343;19;1945;-74
2024/01/07 04:53:54;;;;;;;;;;;17.10;46.80;;;;;;7400472;19;1425;-74
2024/01/07 04:56:20;;;;;;;;;;;17.20;46.80;;;;;;7400718;19;2064;-74
2024/01/07 04:58:45;;;;;;;;;;;17.20;46.70;;;;;;7401503;19;2073;-74
2024/01/07 05:01:11;;;;;;;;;;;17.20;46.70;;;;;;7397911;19;2068;-74
2024/01/07 05:03:37;;;;;;;;;;;17.20;46.60;;;;;;7396156;19;1854;-75
2024/01/07 05:06:03;;;;;;;;;;;17.20;47.20;;;;;;7398868;19;2234;-75
2024/01/07 05:08:29;;;;;;;;;;;17.20;46.60;;;;;;7397988;19;1935;-75
2024/01/07 05:10:54;;;;;;;;;;;17.10;46.60;;;;;;7396720;19;2040;-74
2024/01/07 05:13:19;;;;;;;;;;;17.00;46.80;;;;;;7398120;19;2224;-75
2024/01/07 05:15:46;;;;;;;;;;;17.00;47.10;;;;;;7398592;19;2112;-75
2024/01/07 05:18:12;;;;;;;;;;;16.90;47.20;;;;;;7397863;19;1623;-75
2024/01/07 05:20:37;;;;;;;;;;;16.90;47.30;;;;;;7400736;19;1958;-75
2024/01/07 05:23:03;;;;;;;;;;;16.90;47.30;;;;;;7400088;19;2229;-75
2024/01/07 05:25:28;;;;;;;;;;;16.80;47.40;;;;;;7398147;19;1877;-74
2024/01/07 05:27:54;;;;;;;;;;;16.80;47.50;;;;;;7401313;19;1861;-74
2024/01/07 05:30:19;;;;;;;;;;;16.80;47.40;;;;;;7399943;19;2079;-74
2024/01/07 05:32:45;;;;;;;;;;;16.80;47.50;;;;;;7399563;19;2012;-74
2024/01/07 05:35:10;;;;;;;;;;;16.80;47.40;;;;;;7397810;19;1817;-74
2024/01/07 05:37:36;;;;;;;;;;;16.70;47.50;;;;;;7397764;19;2189;-75
2024/01/07 05:40:01;;;;;;;;;;;16.80;47.40;;;;;;7400140;19;1887;-75
2024/01/07 05:42:27;;;;;;;;;;;16.90;47.30;;;;;;7399016;19;2060;-75
2024/01/07 05:44:52;;;;;;;;;;;17.00;47.30;;;;;;7398994;19;2206;-75
2024/01/07 05:47:18;;;;;;;;;;;17.10;47.30;;;;;;7397412;19;2098;-75
2024/01/07 05:49:43;;;;;;;;;;;17.10;46.90;;;;;;7400048;19;2261;-74
2024/01/07 05:52:08;;;;;;;;;;;17.20;46.90;;;;;;7397432;19;2058;-75
2024/01/07 05:54:34;;;;;;;;;;;17.20;46.90;;;;;;7398424;19;1895;-74
2024/01/07 05:56:59;;;;;;;;;;;17.20;46.80;;;;;;7399795;19;2011;-74
2024/01/07 05:59:25;;;;;;;;;;;17.20;46.80;;;;;;7397276;19;1995;-75
2024/01/07 06:01:50;;;;;;;;;;;17.20;46.70;;;;;;7397982;19;1995;-74
2024/01/07 06:04:16;;;;;;;;;;;17.20;46.80;;;;;;7397090;19;2065;-74
2024/01/07 06:06:41;;;;;;;;;;;17.10;46.70;;;;;;7398050;19;2185;-74
2024/01/07 06:09:07;;;;;;;;;;;17.10;47.60;;;;;;7395121;19;2221;-75
2024/01/07 06:11:32;;;;;;;;;;;16.90;47.10;;;;;;7397328;19;1997;-74
2024/01/07 06:13:58;;;;;;;;;;;16.90;47.30;;;;;;7396362;19;2090;-74
2024/01/07 06:16:23;;;;;;;;;;;16.90;47.50;;;;;;7398596;19;2098;-74
2024/01/07 06:18:48;;;;;;;;;;;16.80;47.40;;;;;;7398078;19;1809;-75
2024/01/07 06:21:14;;;;;;;;;;;16.80;47.60;;;;;;7398355;19;1563;-75
2024/01/07 06:23:39;;;;;;;;;;;16.80;47.60;;;;;;7397993;19;1856;-74
2024/01/07 06:26:05;;;;;;;;;;;16.80;47.50;;;;;;7398003;19;2103;-75
2024/01/07 06:28:31;;;;;;;;;;;16.80;47.50;;;;;;7397259;19;1922;-74
2024/01/07 06:30:56;;;;;;;;;;;16.80;47.60;;;;;;7397166;19;2133;-75
2024/01/07 06:33:22;;;;;;;;;;;16.80;47.50;;;;;;7395901;19;2078;-75
2024/01/07 06:35:47;;;;;;;;;;;16.80;47.50;;;;;;7397843;19;1893;-75
2024/01/07 06:38:13;;;;;;;;;;;16.80;47.40;;;;;;7394662;19;1616;-75
2024/01/07 06:40:39;;;;;;;;;;;16.90;47.40;;;;;;7396717;19;2113;-75
2024/01/07 06:43:04;;;;;;;;;;;17.00;47.20;;;;;;7395376;19;799;-75
2024/01/07 06:45:30;;;;;;;;;;;17.10;47.20;;;;;;7394970;19;830;-75
2024/01/07 06:47:56;;;;;;;;;;;17.10;47.00;;;;;;7394236;19;811;-75
2024/01/07 06:50:21;;;;;;;;;;;17.20;46.90;;;;;;7397388;19;1820;-75
2024/01/07 06:52:47;;;;;;;;;;;17.20;46.90;;;;;;7394372;19;1838;-74
2024/01/07 06:55:12;;;;;;;;;;;17.20;46.90;;;;;;7396965;19;2111;-74
2024/01/07 06:57:38;;;;;;;;;;;17.20;46.80;;;;;;7396627;19;2059;-74
2024/01/07 07:00:04;;;;;;;;;;;17.20;46.90;;;;;;7394601;19;2118;-74
2024/01/07 07:02:29;;;;;;;;;;;17.10;46.80;;;;;;7397245;19;1936;-74
2024/01/07 07:04:55;;;;;;;;;;;17.00;47.00;;;;;;7394712;19;1977;-75
2024/01/07 07:07:22;;;;;;;;;;;17.00;47.30;;;;;;7394511;19;1558;-74
2024/01/07 07:09:48;;;;;;;;;;;16.90;47.30;;;;;;7394438;19;1923;-74
2024/01/07 07:12:13;;;;;;;;;;;16.90;47.40;;;;;;7391749;19;1849;-75
2024/01/07 07:14:39;;;;;;;;;;;16.80;47.40;;;;;;7393319;19;1095;-74
2024/01/07 07:17:05;;;;;;;;;;;16.80;47.50;;;;;;7394669;19;1457;-75
2024/01/07 07:19:30;;;;;;;;;;;16.80;47.50;;;;;;7394565;19;1547;-74
2024/01/07 07:21:56;;;;;;;;;;;16.80;47.50;;;;;;7395121;19;2002;-75
2024/01/07 07:24:22;;;;;;;;;;;16.80;47.50;;;;;;7396676;19;1498;-75
2024/01/07 07:26:47;;;;;;;;;;;16.80;47.70;;;;;;7394359;19;806;-74
2024/01/07 07:29:13;;;;;;;;;;;16.70;47.70;;;;;;7396634;19;1532;-74
2024/01/07 07:31:38;;;;;;;;;;;16.80;47.70;;;;;;7394441;19;1854;-75
2024/01/07 07:34:04;;;;;;;;;;;16.80;47.60;;;;;;7394204;19;808;-74
2024/01/07 07:36:29;;;;;;;;;;;16.90;47.60;;;;;;7394697;19;1519;-75
2024/01/07 07:38:55;;;;;;;;;;;17.00;47.40;;;;;;7395667;19;1488;-74
2024/01/07 07:41:20;;;;;;;;;;;17.10;47.30;;;;;;7393415;19;1317;-75
2024/01/07 07:43:46;;;;;;;;;;;17.10;47.30;;;;;;7397223;19;1290;-75
2024/01/07 07:46:11;;;;;;;;;;;17.20;47.20;;;;;;7393426;19;1428;-74
2024/01/07 07:48:37;;;;;;;;;;;17.20;47.20;;;;;;7393238;19;1690;-75
2024/01/07 07:51:03;;;;;;;;;;;17.10;47.20;;;;;;7393693;19;1834;-75
2024/01/07 07:53:28;;;;;;;;;;;17.10;47.20;;;;;;7393265;19;1355;-74
2024/01/07 07:55:53;;;;;;;;;;;17.00;47.00;;;;;;7394019;19;815;-75
2024/01/07 07:58:19;;;;;;;;;;;17.00;47.10;;;;;;7393636;19;1940;-75
2024/01/07 08:00:45;;;;;;;;;;;16.90;47.10;;;;;;7393267;19;1134;-74
2024/01/07 08:03:10;;;;;;;;;;;16.90;47.30;;;;;;7394481;19;1652;-74
2024/01/07 08:05:36;;;;;;;;;;;16.80;47.40;;;;;;7394721;19;2057;-74
2024/01/07 08:08:01;;;;;;;;;;;16.70;47.50;;;;;;7391380;19;2347;-75
2024/01/07 08:10:28;;;;;;;;;;;16.60;47.70;;;;;;7392510;19;1926;-75
2024/01/07 08:12:54;;;;;;;;;;;16.60;47.70;;;;;;7391976;19;2121;-75
2024/01/07 08:15:19;;;;;;;;;;;16.70;47.80;;;;;;7392527;19;2054;-74
2024/01/07 08:17:45;;;;;;;;;;;16.70;47.70;;;;;;7394388;19;2198;-75
2024/01/07 08:20:10;;;;;;;;;;;16.80;47.80;;;;;;7394160;19;1401;-75
2024/01/07 08:22:36;;;;;;;;;;;16.90;47.70;;;;;;7396743;19;2049;-74
2024/01/07 08:25:01;;;;;;;;;;;16.90;47.60;;;;;;7402887;19;2009;-75
2024/01/07 08:27:27;;;;;;;;;;;17.00;47.60;;;;;;7398835;19;1969;-75
2024/01/07 08:29:52;;;;;;;;;;;17.00;47.60;;;;;;7401101;19;1555;-75
2024/01/07 08:32:19;;;;;;;;;;;17.00;47.40;;;;;;7401516;19;1846;-74
2024/01/07 08:34:44;;;;;;;;;;;17.10;47.60;;;;;;7397652;19;1706;-75
2024/01/07 08:37:10;;;;;;;;;;;17.10;47.40;;;;;;7395675;19;1177;-75
2024/01/07 08:39:36;;;;;;;;;;;17.10;47.50;;;;;;7400666;19;1455;-75
2024/01/07 08:42:03;;;;;;;;;;;17.10;47.50;;;;;;7395695;19;1278;-74
2024/01/07 08:44:29;;;;;;;;;;;17.20;47.50;;;;;;7397672;19;1167;-75
2024/01/07 08:46:54;;;;;;;;;;;17.20;47.60;;;;;;7397946;19;1144;-75
2024/01/07 08:49:19;;;;;;;;;;;17.20;47.60;;;;;;7397503;19;923;-75
2024/01/07 08:51:45;;;;;;;;;;;17.20;47.50;;;;;;7401185;19;1854;-75
2024/01/07 08:54:10;;;;;;;;;;;17.20;47.50;;;;;;7400336;19;1246;-75
2024/01/07 08:56:36;;;;;;;;;;;17.30;47.50;;;;;;7398711;19;1436;-75
2024/01/07 08:59:02;;;;;;;;;;;17.20;47.50;;;;;;7398968;19;1029;-75
2024/01/07 09:01:27;;;;;;;;;;;17.30;47.50;;;;;;7400065;19;1149;-75
2024/01/07 09:03:52;;;;;;;;;;;17.30;47.50;;;;;;7398583;19;1936;-74
2024/01/07 09:06:18;;;;;;;;;;;17.30;47.40;;;;;;7398522;19;2531;-74
2024/01/07 09:08:43;;;;;;;;;;;17.30;47.50;;;;;;7396538;19;1628;-74
2024/01/07 09:11:12;;;;;;;;;;;17.40;47.70;;;;;;7395869;19;1854;-74
2024/01/07 09:13:37;;;;;;;;;;;17.40;47.60;;;;;;7397583;19;820;-75
2024/01/07 09:16:08;;;;;;;;;;;17.40;47.50;;;;;;7398770;19;1365;-74
2024/01/07 09:18:33;;;;;;;;;;;17.40;47.50;;;;;;7397949;19;1494;-74
2024/01/07 09:20:58;;;;;;;;;;;17.40;47.50;;;;;;7401121;19;1435;-75
2024/01/07 09:23:24;;;;;;;;;;;17.50;47.60;;;;;;7399881;19;1885;-74
2024/01/07 09:25:49;;;;;;;;;;;17.50;47.60;;;;;;7399758;19;1959;-74
2024/01/07 09:28:15;;;;;;;;;;;17.50;47.50;;;;;;7397989;19;1917;-74
2024/01/07 09:30:40;;;;;;;;;;;17.60;47.50;;;;;;7399469;19;1847;-75
2024/01/07 09:33:06;;;;;;;;;;;17.50;47.50;;;;;;7400330;19;1257;-74
2024/01/07 09:35:31;;;;;;;;;;;17.60;47.70;;;;;;7398826;19;1558;-74
2024/01/07 09:37:56;;;;;;;;;;;17.60;47.50;;;;;;7396449;19;971;-75
2024/01/07 09:40:22;;;;;;;;;;;17.50;47.50;;;;;;7401103;19;1427;-75
2024/01/07 09:42:47;;;;;;;;;;;17.60;47.70;;;;;;7400132;19;1442;-75
2024/01/07 09:45:13;;;;;;;;;;;17.60;47.70;;;;;;7396226;19;1198;-75
2024/01/07 09:47:40;;;;;;;;;;;17.70;47.50;;;;;;7400681;19;1832;-74
2024/01/07 09:50:06;;;;;;;;;;;17.60;47.70;;;;;;7398562;19;1441;-74
2024/01/07 09:52:32;;;;;;;;;;;17.60;47.70;;;;;;7394469;19;1849;-75
2024/01/07 09:54:59;;;;;;;;;;;17.70;47.70;;;;;;7398438;19;1559;-75
2024/01/07 09:57:25;;;;;;;;;;;17.60;47.80;;;;;;7398665;19;1621;-76
2024/01/07 09:59:50;;;;;;;;;;;17.60;47.70;;;;;;7396755;19;1529;-74
2024/01/07 10:02:16;;;;;;;;;;;17.60;47.70;;;;;;7399607;19;1693;-75
2024/01/07 10:04:41;;;;;;;;;;;17.60;47.80;;;;;;7396200;19;1642;-75
2024/01/07 10:07:07;;;;;;;;;;;17.70;47.90;;;;;;7397649;19;1487;-75
2024/01/07 10:09:33;;;;;;;;;;;17.70;47.80;;;;;;7395991;19;1513;-74
2024/01/07 10:11:58;;;;;;;;;;;17.70;47.90;;;;;;7396669;19;1855;-74
2024/01/07 10:14:27;;;;;;;;;;;17.70;48.00;;;;;;7398921;19;1419;-75
2024/01/07 10:16:52;;;;;;;;;;;17.70;47.90;;;;;;7398486;19;1509;-75
2024/01/07 10:19:19;;;;;;;;;;;17.70;48.00;;;;;;7398819;19;1365;-75
2024/01/07 10:21:45;;;;;;;;;;;17.60;48.10;;;;;;7395178;19;1164;-74
2024/01/07 10:24:10;;;;;;;;;;;17.70;48.60;;;;;;7398278;19;1599;-74
2024/01/07 10:26:39;;;;;;;;;;;17.60;48.40;;;;;;7399115;19;1524;-74
2024/01/07 10:29:05;;;;;;;;;;;17.60;49.00;;;;;;7396928;19;1848;-75
2024/01/07 10:31:31;;;;;;;;;;;17.60;48.80;;;;;;7396439;19;1980;-74
2024/01/07 10:33:57;;;;;;;;;;;17.60;49.20;;;;;;7398348;19;2009;-74
2024/01/07 10:36:22;;;;;;;;;;;17.70;49.00;;;;;;7397725;19;1650;-74
2024/01/07 10:38:48;;;;;;;;;;;17.60;49.10;;;;;;7399096;19;1400;-74
2024/01/07 10:41:14;;;;;;;;;;;17.70;49.30;;;;;;7396023;19;1666;-74
2024/01/07 10:43:41;;;;;;;;;;;17.80;49.30;;;;;;7398709;19;1625;-74
2024/01/07 10:46:07;;;;;;;;;;;17.80;49.20;;;;;;7395362;19;1715;-74
2024/01/07 10:48:33;;;;;;;;;;;17.80;49.20;;;;;;7397274;19;1606;-74
2024/01/07 10:50:59;;;;;;;;;;;17.80;49.20;;;;;;7396063;19;1852;-75
2024/01/07 10:53:24;;;;;;;;;;;17.80;49.20;;;;;;7394784;19;1656;-75
2024/01/07 10:55:52;;;;;;;;;;;17.80;49.30;;;;;;7397525;19;1463;-75
2024/01/07 10:58:18;;;;;;;;;;;17.80;49.30;;;;;;7396663;19;1664;-75
2024/01/07 11:00:43;;;;;;;;;;;17.80;49.20;;;;;;7398348;19;1646;-75
2024/01/07 11:03:10;;;;;;;;;;;17.80;49.20;;;;;;7397650;19;1654;-74
2024/01/07 11:05:38;;;;;;;;;;;17.90;49.20;;;;;;7397855;19;1670;-74
2024/01/07 11:08:07;;;;;;;;;;;17.90;49.10;;;;;;7398387;19;2209;-75
2024/01/07 11:10:43;;;;;;;;;;;17.90;49.20;;;;;;7395472;19;1612;-75
2024/01/07 11:13:09;;;;;;;;;;;17.90;49.20;;;;;;7396572;19;1510;-75
2024/01/07 11:15:57;;;;;;;;;;;17.90;49.10;;;;;;7395657;19;926;-75
2024/01/07 11:18:23;;;;;;;;;;;17.80;49.10;;;;;;7397582;19;1691;-76
2024/01/07 11:20:48;;;;;;;;;;;17.80;48.90;;;;;;7397728;19;1677;-76
2024/01/07 11:23:33;;;;;;;;;;;17.80;48.90;;;;;;7392952;19;1188;-75
2024/01/07 11:25:59;;;;;;;;;;;17.90;48.90;;;;;;7389714;19;3260;-75
2024/01/07 11:29:03;;;;;;;;;;;17.80;48.70;;;;;;7395163;19;3672;-76
2024/01/07 11:31:38;;;;;;;;;;;17.80;48.70;;;;;;7390694;19;3616;-76
2024/01/07 11:34:03;;;;;;;;;;;17.90;48.50;;;;;;7385070;19;4135;-75
2024/01/07 11:36:29;;;;;;;;;;;17.90;48.40;;;;;;7393310;19;3820;-75
2024/01/07 11:38:54;;;;;;;;;;;17.90;48.10;;;;;;7392104;19;4963;-75
2024/01/07 11:41:20;;;;;;;;;;;17.90;48.10;;;;;;7390417;19;4131;-75
2024/01/07 11:43:55;;;;;;;;;;;17.90;48.00;;;;;;7395455;19;3529;-75
2024/01/07 11:46:21;;;;;;;;;;;17.90;48.20;;;;;;7396517;19;4692;-75
2024/01/07 11:48:46;;;;;;;;;;;18.00;48.30;;;;;;7396439;19;1365;-76
2024/01/07 11:51:12;;;;;;;;;;;18.00;48.30;;;;;;7392891;19;3358;-76
2024/01/07 11:53:37;;;;;;;;;;;18.00;48.30;;;;;;7394662;19;2138;-75
2024/01/07 11:56:03;;;;;;;;;;;18.00;48.10;;;;;;7390958;19;3782;-75
2024/01/07 11:58:28;;;;;;;;;;;18.10;48.30;;;;;;7393471;19;3444;-75
2024/01/07 12:00:54;;;;;;;;;;;18.00;48.30;;;;;;7402676;19;4774;-75
2024/01/07 12:03:19;;;;;;;;;;;18.00;48.30;;;;;;7401824;19;1911;-75
2024/01/07 12:05:44;;;;;;;;;;;18.10;48.50;;;;;;7403928;19;1701;-75
2024/01/07 12:08:10;;;;;;;;;;;18.00;48.30;;;;;;7399973;19;2246;-74
2024/01/07 12:10:37;;;;;;;;;;;18.10;48.50;;;;;;7400652;19;1808;-74
2024/01/07 12:13:03;;;;;;;;;;;18.10;48.40;;;;;;7401237;19;2002;-75
2024/01/07 12:15:29;;;;;;;;;;;18.10;48.20;;;;;;7400649;19;2806;-75
2024/01/07 12:17:55;;;;;;;;;;;18.10;48.10;;;;;;7402706;19;3670;-74
2024/01/07 12:20:20;;;;;;;;;;;18.20;48.10;;;;;;7399666;19;3838;-75
2024/01/07 12:22:46;;;;;;;;;;;18.20;48.20;;;;;;7401073;19;784;-75
2024/01/07 12:25:12;;;;;;;;;;;18.20;48.20;;;;;;7402479;19;1651;-75
2024/01/07 12:27:40;;;;;;;;;;;18.30;48.10;;;;;;7403451;19;1397;-75
2024/01/07 12:30:06;;;;;;;;;;;18.30;48.10;;;;;;7399343;19;1017;-74
2024/01/07 12:32:31;;;;;;;;;;;18.30;48.30;;;;;;7400216;19;1876;-74
2024/01/07 12:34:58;;;;;;;;;;;18.30;48.20;;;;;;7399060;19;2305;-75
2024/01/07 12:37:25;;;;;;;;;;;18.40;48.10;;;;;;7403855;19;1556;-75
2024/01/07 12:39:51;;;;;;;;;;;18.40;48.00;;;;;;7402824;19;1399;-75
2024/01/07 12:42:16;;;;;;;;;;;18.50;48.10;;;;;;7401988;19;1634;-75
2024/01/07 12:44:42;;;;;;;;;;;18.50;48.10;;;;;;7400128;19;1403;-75
2024/01/07 12:47:07;;;;;;;;;;;18.50;48.00;;;;;;7401679;19;1546;-75
2024/01/07 12:49:32;;;;;;;;;;;18.40;48.10;;;;;;7401716;19;1185;-75
2024/01/07 12:51:58;;;;;;;;;;;18.40;48.00;;;;;;7400793;19;1857;-74
2024/01/07 12:54:24;;;;;;;;;;;18.50;48.00;;;;;;7400801;19;1289;-75
2024/01/07 12:56:49;;;;;;;;;;;18.40;48.10;;;;;;7397648;19;6926;-75
2024/01/07 12:59:15;;;;;;;;;;;18.40;48.20;;;;;;7402670;19;1181;-75
2024/01/07 13:01:40;;;;;;;;;;;18.40;48.30;;;;;;7398649;19;3705;-74
2024/01/07 13:04:06;;;;;;;;;;;18.40;48.10;;;;;;7401275;19;1146;-74
2024/01/07 13:06:34;;;;;;;;;;;18.50;48.20;;;;;;7400754;19;1380;-75
2024/01/07 13:08:59;;;;;;;;;;;18.50;48.20;;;;;;7393724;19;1935;-74
2024/01/07 13:11:25;;;;;;;;;;;18.40;48.30;;;;;;7399629;19;1853;-75
2024/01/07 13:13:50;;;;;;;;;;;18.50;48.30;;;;;;7399998;19;1307;-73
2024/01/07 13:16:15;;;;;;;;;;;18.50;48.40;;;;;;7398517;19;2774;-75
2024/01/07 13:18:41;;;;;;;;;;;18.50;48.30;;;;;;7398963;19;3235;-75
2024/01/07 13:21:06;;;;;;;;;;;18.40;48.40;;;;;;7395538;19;3113;-74
2024/01/07 13:23:32;;;;;;;;;;;18.40;48.40;;;;;;7398465;19;3648;-75
2024/01/07 13:25:58;;;;;;;;;;;18.40;48.40;;;;;;7396561;19;3666;-75
2024/01/07 13:28:23;;;;;;;;;;;18.40;48.30;;;;;;7391090;19;3626;-75
2024/01/07 13:30:49;;;;;;;;;;;18.40;48.40;;;;;;7401347;19;1851;-75
2024/01/07 13:33:17;;;;;;;;;;;18.30;48.40;;;;;;7393907;19;3390;-74
2024/01/07 13:35:43;;;;;;;;;;;18.40;48.50;;;;;;7396329;19;3645;-74
2024/01/07 13:38:09;;;;;;;;;;;18.30;48.60;;;;;;7396759;19;3462;-74
2024/01/07 13:40:35;;;;;;;;;;;18.40;48.50;;;;;;7400682;19;1984;-75
2024/01/07 13:43:00;;;;;;;;;;;18.40;48.40;;;;;;7398950;19;1209;-74
2024/01/07 13:45:26;;;;;;;;;;;18.40;48.50;;;;;;7400880;19;1804;-74
2024/01/07 13:47:51;;;;;;;;;;;18.50;48.50;;;;;;7398780;19;1273;-73
2024/01/07 13:50:17;;;;;;;;;;;18.50;48.50;;;;;;7399305;19;1265;-74
2024/01/07 13:52:42;;;;;;;;;;;18.50;48.50;;;;;;7395167;19;3548;-74
2024/01/07 13:55:09;;;;;;;;;;;18.50;48.40;;;;;;7396317;19;3089;-74
2024/01/07 13:57:35;;;;;;;;;;;18.60;48.40;;;;;;7395403;19;2661;-74
2024/01/07 14:00:05;;;;;;;;;;;18.50;48.40;;;;;;7396889;19;3085;-74
2024/01/07 14:02:30;;;;;;;;;;;18.50;48.30;;;;;;7395409;19;2858;-74
2024/01/07 14:04:56;;;;;;;;;;;18.60;48.50;;;;;;7394932;19;3671;-74
2024/01/07 14:07:22;;;;;;;;;;;18.50;48.40;;;;;;7398212;19;1668;-74
2024/01/07 14:09:47;;;;;;;;;;;18.60;48.50;;;;;;7397956;19;1225;-74
2024/01/07 14:12:13;;;;;;;;;;;18.60;48.40;;;;;;7397168;19;1846;-75
2024/01/07 14:14:38;;;;;;;;;;;18.60;48.30;;;;;;7399158;19;1257;-75
2024/01/07 14:17:03;;;;;;;;;;;18.60;48.30;;;;;;7399807;19;1245;-75
2024/01/07 14:19:29;;;;;;;;;;;18.60;48.30;;;;;;7398328;19;1429;-74
2024/01/07 14:21:55;;;;;;;;;;;18.60;48.30;;;;;;7398031;19;1408;-74
2024/01/07 14:24:21;;;;;;;;;;;18.60;48.40;;;;;;7400242;19;1331;-74